Time;durP1;ratioP1;P1;durP2;ratioP2;P2;SDS_P1;SDS_P2;PMS_P1;PMS_P2;Temp;Humidity;BMP_temperature;BMP_pressure;BME280_temperature;BME280_humidity;BME280_pressure;Samples;Min_cycle;Max_cycle;Signal;HPM_P1;HPM_P2
2021/04/10 00:01:36;;;;;;;10.68;3.90;;;4.00;99.90;;;;;;5074308;28;20032;-53
2021/04/10 00:04:04;;;;;;;7.05;3.42;;;4.00;99.90;;;;;;5076524;28;20020;-53
2021/04/10 00:06:30;;;;;;;7.07;3.35;;;4.00;99.90;;;;;;5079983;28;20035;-55
2021/04/10 00:08:55;;;;;;;7.15;2.80;;;4.00;99.90;;;;;;5080434;28;20036;-53
2021/04/10 00:11:21;;;;;;;5.97;2.85;;;4.00;99.90;;;;;;5074486;28;20442;-51
2021/04/10 00:13:46;;;;;;;5.22;3.30;;;4.00;99.90;;;;;;5075091;28;20063;-54
2021/04/10 00:16:12;;;;;;;8.25;2.95;;;4.00;99.90;;;;;;5054266;28;20028;-55
2021/04/10 00:18:38;;;;;;;5.93;2.63;;;4.10;99.90;;;;;;5073628;28;20031;-53
2021/04/10 00:21:04;;;;;;;11.77;3.53;;;4.00;99.90;;;;;;5075811;28;20025;-55
2021/04/10 00:23:30;;;;;;;7.85;3.80;;;4.00;99.90;;;;;;5075695;28;20028;-54
2021/04/10 00:25:55;;;;;;;6.68;3.72;;;4.00;99.90;;;;;;5078655;28;20028;-53
2021/04/10 00:28:21;;;;;;;7.63;3.17;;;4.00;99.90;;;;;;5086633;28;20099;-53
2021/04/10 00:30:47;;;;;;;6.53;2.80;;;4.00;99.90;;;;;;5085066;28;20016;-54
2021/04/10 00:33:13;;;;;;;7.35;3.22;;;4.00;99.90;;;;;;5087813;28;20437;-50
2021/04/10 00:35:38;;;;;;;5.43;3.28;;;4.00;99.90;;;;;;5084082;28;20028;-51
2021/04/10 00:38:04;;;;;;;8.93;2.97;;;4.00;99.90;;;;;;5077408;28;20036;-53
2021/04/10 00:40:29;;;;;;;11.68;3.90;;;4.00;99.90;;;;;;5080870;28;20028;-52
2021/04/10 00:42:55;;;;;;;12.00;3.72;;;4.00;99.90;;;;;;5071417;28;20467;-54
2021/04/10 00:45:21;;;;;;;9.65;3.70;;;4.00;99.90;;;;;;5090096;28;20020;-53
2021/04/10 00:47:46;;;;;;;6.88;3.35;;;4.00;99.90;;;;;;5100218;22;20648;-55
2021/04/10 00:50:12;;;;;;;8.75;3.70;;;4.00;99.90;;;;;;5058412;28;20032;-57
2021/04/10 00:52:39;;;;;;;6.88;4.32;;;4.00;99.90;;;;;;5059206;28;20036;-57
2021/04/10 00:55:07;;;;;;;8.73;4.47;;;4.00;99.90;;;;;;5056732;28;20069;-58
2021/04/10 00:57:33;;;;;;;7.65;3.40;;;4.00;99.90;;;;;;5069031;28;20044;-55
2021/04/10 00:59:59;;;;;;;5.32;3.03;;;4.00;99.90;;;;;;5067037;28;20036;-58
2021/04/10 01:02:26;;;;;;;9.32;4.22;;;4.00;99.90;;;;;;5067284;28;20482;-57
2021/04/10 01:04:52;;;;;;;10.13;3.88;;;4.00;99.90;;;;;;5068072;28;20025;-55
2021/04/10 01:07:18;;;;;;;6.85;3.25;;;4.00;99.90;;;;;;5069044;28;20021;-56
2021/04/10 01:09:47;;;;;;;6.07;3.40;;;4.00;99.90;;;;;;5067958;28;20027;-57
2021/04/10 01:12:28;;;;;;;4.20;3.33;;;4.00;99.90;;;;;;5068702;28;20102;-58
2021/04/10 01:15:01;;;;;;;7.80;3.60;;;3.90;99.90;;;;;;5049084;28;20126;-56
2021/04/10 01:17:30;;;;;;;7.38;3.20;;;3.90;99.90;;;;;;5055900;28;20030;-57
2021/04/10 01:20:05;;;;;;;9.13;3.40;;;3.90;99.90;;;;;;5063512;28;20025;-54
2021/04/10 01:23:10;;;;;;;8.30;4.05;;;3.90;99.90;;;;;;5048164;28;20483;-55
2021/04/10 01:25:41;;;;;;;5.63;3.70;;;3.90;99.90;;;;;;5037578;28;20116;-57
2021/04/10 01:28:31;;;;;;;5.25;3.35;;;3.90;99.90;;;;;;5051219;28;20024;-58
2021/04/10 01:30:58;;;;;;;9.40;4.47;;;3.80;99.90;;;;;;5053601;28;20551;-55
2021/04/10 01:33:29;;;;;;;9.27;4.82;;;3.80;99.90;;;;;;5054959;28;20123;-58
2021/04/10 01:35:59;;;;;;;9.93;4.30;;;3.80;99.90;;;;;;5051367;28;20029;-58
2021/04/10 01:38:28;;;;;;;10.15;4.63;;;3.80;99.90;;;;;;5058858;28;20024;-58
2021/04/10 01:40:57;;;;;;;9.75;3.63;;;3.70;99.90;;;;;;5068513;28;20021;-57
2021/04/10 01:43:23;;;;;;;7.90;3.88;;;3.70;99.90;;;;;;5068823;28;20035;-57
2021/04/10 01:45:50;;;;;;;4.93;3.75;;;3.70;99.90;;;;;;5069183;28;20028;-60
2021/04/10 01:48:17;;;;;;;9.35;4.50;;;3.70;99.90;;;;;;5067841;28;20040;-57
2021/04/10 01:50:43;;;;;;;8.65;4.20;;;3.70;99.90;;;;;;5068218;28;20100;-57
2021/04/10 01:53:09;;;;;;;9.45;5.43;;;3.70;99.90;;;;;;5068296;28;20278;-59
2021/04/10 01:55:35;;;;;;;8.88;4.95;;;3.70;99.90;;;;;;5068334;28;20029;-55
2021/04/10 01:58:02;;;;;;;9.13;3.97;;;3.70;99.90;;;;;;5046127;28;20036;-58
2021/04/10 02:00:30;;;;;;;5.15;3.85;;;3.70;99.90;;;;;;5065048;28;20663;-57
2021/04/10 02:02:57;;;;;;;7.45;4.30;;;3.70;99.90;;;;;;5050688;28;20031;-57
2021/04/10 02:05:23;;;;;;;6.93;4.47;;;3.70;99.90;;;;;;5068643;28;20013;-58
2021/04/10 02:07:50;;;;;;;7.10;4.60;;;3.60;99.90;;;;;;5067938;28;20426;-58
2021/04/10 02:10:24;;;;;;;9.73;4.30;;;3.70;99.90;;;;;;5058961;28;20087;-58
2021/04/10 02:12:53;;;;;;;7.63;4.95;;;3.70;99.90;;;;;;5068207;28;20025;-58
2021/04/10 02:15:20;;;;;;;8.00;4.57;;;3.60;99.90;;;;;;5067815;28;20017;-57
2021/04/10 02:17:46;;;;;;;7.68;4.07;;;3.60;99.90;;;;;;5067848;28;20031;-57
2021/04/10 02:20:13;;;;;;;9.13;4.53;;;3.60;99.90;;;;;;5067928;28;20028;-56
2021/04/10 02:22:44;;;;;;;8.48;4.85;;;3.60;99.90;;;;;;5067556;28;20036;-57
2021/04/10 02:25:11;;;;;;;11.82;4.88;;;3.60;99.90;;;;;;5067701;28;20028;-56
2021/04/10 02:27:38;;;;;;;15.32;5.40;;;3.60;99.90;;;;;;5067718;28;20021;-57
2021/04/10 02:30:06;;;;;;;10.25;5.40;;;3.60;99.90;;;;;;5067637;28;20491;-54
2021/04/10 02:32:43;;;;;;;8.75;4.88;;;3.60;99.90;;;;;;5067888;28;20060;-57
2021/04/10 02:35:24;;;;;;;12.93;5.15;;;3.60;99.90;;;;;;5058358;28;20025;-57
2021/04/10 02:37:50;;;;;;;15.35;5.00;;;3.60;99.90;;;;;;5060272;28;20509;-57
2021/04/10 02:40:19;;;;;;;10.18;5.00;;;3.60;99.90;;;;;;5067455;28;20028;-56
2021/04/10 02:42:47;;;;;;;11.80;5.78;;;3.50;99.90;;;;;;5067739;28;20033;-56
2021/04/10 02:45:16;;;;;;;10.23;4.03;;;3.60;99.90;;;;;;5067116;28;20390;-55
2021/04/10 02:47:47;;;;;;;7.63;4.13;;;3.50;99.90;;;;;;5048668;28;20037;-56
2021/04/10 02:50:16;;;;;;;18.83;4.25;;;3.50;99.90;;;;;;5052748;28;20341;-57
2021/04/10 02:52:46;;;;;;;7.60;4.25;;;3.50;99.90;;;;;;5067406;28;20617;-58
2021/04/10 02:55:18;;;;;;;12.30;4.22;;;3.50;99.90;;;;;;5067802;28;20025;-58
2021/04/10 02:57:45;;;;;;;9.23;4.18;;;3.40;99.90;;;;;;5049229;28;20029;-57
2021/04/10 03:00:12;;;;;;;11.02;4.13;;;3.40;99.90;;;;;;5050345;28;20064;-56
2021/04/10 03:02:40;;;;;;;3.80;3.00;;;3.40;99.90;;;;;;5071780;28;20067;-57
2021/04/10 03:05:06;;;;;;;9.13;3.55;;;3.40;99.90;;;;;;5071847;28;20054;-58
2021/04/10 03:07:32;;;;;;;11.27;3.90;;;3.40;99.90;;;;;;5072256;28;20027;-57
2021/04/10 03:09:59;;;;;;;9.80;3.70;;;3.40;99.90;;;;;;5071564;28;20025;-57
2021/04/10 03:12:25;;;;;;;10.18;4.15;;;3.40;99.90;;;;;;5071872;28;20032;-56
2021/04/10 03:14:51;;;;;;;8.00;3.03;;;3.40;99.90;;;;;;5054172;28;20029;-57
2021/04/10 03:17:20;;;;;;;10.48;3.45;;;3.40;99.90;;;;;;5071595;28;20029;-56
2021/04/10 03:19:46;;;;;;;8.10;3.17;;;3.40;99.90;;;;;;5071018;28;20028;-58
2021/04/10 03:22:14;;;;;;;10.80;3.88;;;3.40;99.90;;;;;;5071502;28;20288;-58
2021/04/10 03:24:40;;;;;;;7.57;3.13;;;3.40;99.90;;;;;;5071635;28;20042;-57
2021/04/10 03:27:06;;;;;;;9.55;3.17;;;3.40;99.90;;;;;;5071059;28;20115;-58
2021/04/10 03:29:32;;;;;;;9.05;2.97;;;3.40;99.90;;;;;;5070604;28;20033;-57
2021/04/10 03:31:59;;;;;;;8.57;2.92;;;3.40;99.90;;;;;;5071190;28;20042;-58
2021/04/10 03:34:25;;;;;;;7.68;1.83;;;3.30;99.90;;;;;;5069439;28;20024;-57
2021/04/10 03:36:52;;;;;;;9.95;2.67;;;3.30;99.90;;;;;;5043583;28;20033;-58
2021/04/10 03:39:18;;;;;;;8.07;2.92;;;3.30;99.90;;;;;;5052583;28;20077;-55
2021/04/10 03:41:44;;;;;;;6.05;2.25;;;3.30;99.90;;;;;;5071240;28;20055;-56
2021/04/10 03:44:10;;;;;;;7.28;2.60;;;3.30;99.90;;;;;;5071015;28;20067;-57
2021/04/10 03:46:36;;;;;;;10.90;2.60;;;3.30;99.90;;;;;;5069853;28;20437;-58
2021/04/10 03:49:06;;;;;;;12.05;2.70;;;3.30;99.90;;;;;;5070466;28;20036;-57
2021/04/10 03:51:32;;;;;;;6.45;2.35;;;3.30;99.90;;;;;;5070331;28;20044;-55
2021/04/10 03:53:59;;;;;;;10.95;2.53;;;3.30;99.90;;;;;;5070927;28;20091;-58
2021/04/10 03:56:24;;;;;;;7.32;2.35;;;3.30;99.90;;;;;;5069457;28;20756;-56
2021/04/10 03:58:50;;;;;;;13.15;2.40;;;3.30;99.90;;;;;;5052638;28;20059;-54
2021/04/10 04:01:16;;;;;;;8.73;2.45;;;3.20;99.90;;;;;;5055155;28;20456;-56
2021/04/10 04:03:41;;;;;;;10.18;2.83;;;3.20;99.90;;;;;;5071347;28;20082;-57
2021/04/10 04:06:07;;;;;;;11.43;2.67;;;3.20;99.90;;;;;;5070165;28;20043;-57
2021/04/10 04:08:32;;;;;;;6.10;3.15;;;3.20;99.90;;;;;;5066128;28;20024;-56
2021/04/10 04:10:58;;;;;;;9.00;3.38;;;3.20;99.90;;;;;;5068126;28;20107;-56
2021/04/10 04:13:23;;;;;;;6.13;2.50;;;3.10;99.90;;;;;;5070564;28;20363;-58
2021/04/10 04:15:49;;;;;;;6.50;2.15;;;3.20;99.90;;;;;;5070467;28;20537;-56
2021/04/10 04:18:14;;;;;;;4.75;1.77;;;3.20;99.90;;;;;;5066486;28;20103;-56
2021/04/10 04:20:40;;;;;;;5.07;2.45;;;3.10;99.90;;;;;;5070615;28;20027;-57
2021/04/10 04:23:06;;;;;;;5.78;2.28;;;3.20;99.90;;;;;;5064657;28;20494;-57
2021/04/10 04:25:31;;;;;;;7.50;2.22;;;3.10;99.90;;;;;;5050934;28;20034;-58
2021/04/10 04:27:57;;;;;;;5.78;2.08;;;3.10;99.90;;;;;;5059343;28;20016;-56
2021/04/10 04:30:23;;;;;;;7.50;2.75;;;3.10;99.90;;;;;;5070357;28;20491;-58
2021/04/10 04:32:48;;;;;;;4.25;2.30;;;3.10;99.90;;;;;;5053212;28;20017;-58
2021/04/10 04:35:14;;;;;;;7.35;1.95;;;3.10;99.90;;;;;;5051577;28;20155;-58
2021/04/10 04:37:40;;;;;;;5.72;2.00;;;3.10;99.90;;;;;;5055965;28;20020;-58
2021/04/10 04:40:08;;;;;;;7.90;2.42;;;3.10;99.90;;;;;;5050395;28;20059;-58
2021/04/10 04:42:34;;;;;;;4.88;2.42;;;3.10;99.90;;;;;;5056453;28;20506;-58
2021/04/10 04:44:59;;;;;;;6.82;2.17;;;3.10;99.90;;;;;;5050829;28;20020;-58
2021/04/10 04:47:25;;;;;;;5.60;2.13;;;3.10;99.90;;;;;;5051080;28;20068;-57
2021/04/10 04:49:50;;;;;;;4.97;1.98;;;3.10;99.90;;;;;;5051955;28;20037;-57
2021/04/10 04:52:16;;;;;;;8.00;2.35;;;3.00;99.90;;;;;;5050717;28;20107;-58
2021/04/10 04:54:41;;;;;;;9.80;2.80;;;3.00;99.90;;;;;;5052055;28;20032;-58
2021/04/10 04:57:07;;;;;;;6.43;2.05;;;3.00;99.90;;;;;;5050791;28;20033;-56
2021/04/10 04:59:32;;;;;;;7.63;2.55;;;3.00;99.90;;;;;;5050124;28;20021;-57
2021/04/10 05:01:58;;;;;;;4.00;1.85;;;3.00;99.90;;;;;;5051076;28;20029;-57
2021/04/10 05:04:24;;;;;;;8.13;1.98;;;3.00;99.90;;;;;;5049514;28;20028;-57
2021/04/10 05:06:49;;;;;;;5.43;2.45;;;3.00;99.90;;;;;;5052131;28;20107;-59
2021/04/10 05:09:15;;;;;;;5.20;1.92;;;3.00;99.90;;;;;;5050013;28;20487;-57
2021/04/10 05:11:40;;;;;;;5.97;2.90;;;3.00;99.90;;;;;;5051527;28;20021;-55
2021/04/10 05:14:06;;;;;;;7.07;1.90;;;3.10;99.90;;;;;;5052836;28;20033;-58
2021/04/10 05:16:32;;;;;;;7.55;2.47;;;3.10;99.90;;;;;;5052883;28;20294;-54
2021/04/10 05:18:58;;;;;;;6.82;1.90;;;3.00;99.90;;;;;;5050379;28;20379;-59
2021/04/10 05:21:24;;;;;;;3.58;1.83;;;3.10;99.90;;;;;;5051153;28;20016;-57
2021/04/10 05:23:50;;;;;;;7.30;2.45;;;3.10;99.90;;;;;;5051525;28;21928;-59
2021/04/10 05:26:15;;;;;;;8.10;2.22;;;3.00;99.90;;;;;;5049721;28;20021;-56
2021/04/10 05:28:41;;;;;;;4.28;2.40;;;3.10;99.90;;;;;;5033754;28;20514;-56
2021/04/10 05:31:06;;;;;;;6.35;2.45;;;3.10;99.90;;;;;;5053619;28;20090;-56
2021/04/10 05:33:32;;;;;;;4.93;2.33;;;3.10;99.90;;;;;;5050799;28;20032;-57
2021/04/10 05:35:59;;;;;;;4.68;2.13;;;3.10;99.90;;;;;;5050122;28;20066;-57
2021/04/10 05:38:24;;;;;;;6.25;2.00;;;3.20;99.90;;;;;;5050542;28;20017;-57
2021/04/10 05:40:50;;;;;;;7.05;2.72;;;3.10;99.90;;;;;;5050886;28;20466;-58
2021/04/10 05:43:16;;;;;;;7.38;2.10;;;3.20;99.90;;;;;;5051954;28;20013;-58
2021/04/10 05:45:42;;;;;;;4.38;1.83;;;3.20;99.90;;;;;;5050875;28;20078;-57
2021/04/10 05:48:08;;;;;;;6.78;3.00;;;3.20;99.90;;;;;;5049672;28;20051;-57
2021/04/10 05:50:34;;;;;;;4.65;2.28;;;3.20;99.90;;;;;;5047571;28;20025;-59
2021/04/10 05:52:59;;;;;;;5.22;2.10;;;3.20;99.90;;;;;;5051112;28;20021;-58
2021/04/10 05:55:25;;;;;;;6.00;2.25;;;3.20;99.90;;;;;;5033393;28;20529;-58
2021/04/10 05:57:50;;;;;;;4.13;2.17;;;3.30;99.90;;;;;;5052242;28;20020;-58
2021/04/10 06:00:17;;;;;;;6.57;2.45;;;3.20;99.90;;;;;;5053046;28;20045;-56
2021/04/10 06:02:42;;;;;;;7.43;2.45;;;3.30;99.90;;;;;;5051613;28;20033;-58
2021/04/10 06:05:08;;;;;;;3.35;1.70;;;3.30;99.90;;;;;;5064500;28;20031;-58
2021/04/10 06:07:34;;;;;;;7.50;2.20;;;3.30;99.90;;;;;;5067253;28;20116;-59
2021/04/10 06:09:59;;;;;;;4.32;2.28;;;3.40;99.90;;;;;;5049299;28;20024;-58
2021/04/10 06:12:25;;;;;;;6.07;2.00;;;3.40;99.90;;;;;;5067112;28;20031;-58
2021/04/10 06:14:51;;;;;;;7.97;2.72;;;3.50;99.90;;;;;;5067658;28;20020;-57
2021/04/10 06:17:17;;;;;;;6.97;2.70;;;3.50;99.90;;;;;;5050972;28;20032;-57
2021/04/10 06:19:42;;;;;;;3.47;1.65;;;3.60;99.90;;;;;;5057340;28;20036;-58
2021/04/10 06:22:08;;;;;;;5.25;1.83;;;3.60;99.90;;;;;;5068016;28;20137;-57
2021/04/10 06:24:34;;;;;;;7.45;1.80;;;3.60;99.90;;;;;;5067850;28;20021;-58
2021/04/10 06:26:59;;;;;;;4.57;1.38;;;3.70;99.90;;;;;;5068225;28;20024;-58
2021/04/10 06:29:25;;;;;;;6.32;2.25;;;3.70;99.90;;;;;;5067820;28;20056;-57
2021/04/10 06:31:51;;;;;;;8.68;2.55;;;3.80;99.90;;;;;;5068325;28;20031;-58
2021/04/10 06:34:16;;;;;;;4.38;1.92;;;3.80;99.90;;;;;;5063924;28;20092;-57
2021/04/10 06:36:42;;;;;;;10.50;2.58;;;3.80;99.90;;;;;;5057091;28;20060;-58
2021/04/10 06:39:07;;;;;;;4.93;1.90;;;3.90;99.90;;;;;;5068240;28;20060;-57
2021/04/10 06:41:38;;;;;;;11.30;2.28;;;3.90;99.90;;;;;;5068156;28;20016;-57
2021/04/10 06:44:04;;;;;;;5.88;1.60;;;4.00;99.90;;;;;;5067679;28;20111;-58
2021/04/10 06:46:34;;;;;;;8.95;2.22;;;4.00;99.90;;;;;;5068013;28;20100;-57
2021/04/10 06:49:02;;;;;;;4.35;2.08;;;4.10;99.90;;;;;;5090134;22;20047;-51
2021/04/10 06:51:28;;;;;;;6.40;2.35;;;4.20;99.90;;;;;;5078523;28;20454;-55
2021/04/10 06:53:55;;;;;;;11.45;2.65;;;4.20;99.90;;;;;;5081690;28;20043;-52
2021/04/10 06:56:26;;;;;;;5.68;2.15;;;4.30;99.90;;;;;;5085424;28;20381;-53
2021/04/10 06:59:02;;;;;;;4.75;1.50;;;4.30;99.90;;;;;;5066046;28;20107;-53
2021/04/10 07:01:28;;;;;;;;;;;4.30;99.90;;;;;;5067116;28;20411;-54
2021/04/10 07:03:54;;;;;;;7.68;1.63;;;4.40;99.90;;;;;;5058669;28;19908;-52
2021/04/10 07:06:20;;;;;;;6.65;2.00;;;4.40;99.90;;;;;;5065921;28;20039;-53
2021/04/10 07:08:46;;;;;;;6.00;1.63;;;4.40;99.90;;;;;;5066250;28;20128;-56
2021/04/10 07:11:14;;;;;;;7.63;1.67;;;4.50;99.90;;;;;;5041405;28;20068;-55
2021/04/10 07:13:40;;;;;;;8.13;1.88;;;4.40;99.90;;;;;;5063173;28;20016;-50
2021/04/10 07:16:06;;;;;;;8.43;1.63;;;4.50;99.90;;;;;;5067335;28;20021;-58
2021/04/10 07:18:32;;;;;;;6.10;1.77;;;4.60;99.90;;;;;;5067465;28;20024;-53
2021/04/10 07:21:15;;;;;;;6.10;1.95;;;4.60;99.90;;;;;;5046416;28;20399;-56
2021/04/10 07:23:49;;;;;;;7.07;1.80;;;4.70;99.90;;;;;;5063018;28;20028;-56
2021/04/10 07:26:16;;;;;;;10.98;2.20;;;4.80;99.90;;;;;;5068028;28;20017;-54
2021/04/10 07:28:42;;;;;;;5.28;1.60;;;4.90;99.90;;;;;;5067409;28;20379;-56
2021/04/10 07:31:13;;;;;;;6.78;1.48;;;4.90;99.90;;;;;;5067147;28;20107;-53
2021/04/10 07:33:58;;;;;;;8.88;2.85;;;5.00;99.90;;;;;;5063414;28;20062;-53
2021/04/10 07:36:24;;;;;;;3.85;1.17;;;4.90;99.90;;;;;;5065641;28;20025;-54
2021/04/10 07:38:57;;;;;;;6.45;1.90;;;4.90;99.90;;;;;;5065521;28;20033;-54
2021/04/10 07:41:23;;;;;;;5.15;1.38;;;5.00;99.90;;;;;;5073311;28;20073;-53
2021/04/10 07:43:50;;;;;;;10.23;2.22;;;5.10;99.90;;;;;;5086275;28;20032;-53
2021/04/10 07:46:22;;;;;;;5.90;1.23;;;5.20;99.90;;;;;;5083406;28;20076;-55
2021/04/10 07:49:02;;;;;;;7.50;1.92;;;5.20;99.90;;;;;;5088606;28;20115;-56
2021/04/10 07:51:29;;;;;;;4.05;1.00;;;5.20;99.90;;;;;;5073749;28;20074;-52
2021/04/10 07:53:56;;;;;;;9.88;1.55;;;5.30;99.90;;;;;;5069876;28;20395;-54
2021/04/10 07:56:22;;;;;;;7.15;1.92;;;5.40;99.90;;;;;;5070759;28;20037;-52
2021/04/10 07:58:47;;;;;;;5.25;1.13;;;5.40;99.90;;;;;;5069375;28;20029;-52
2021/04/10 08:01:14;;;;;;;4.93;1.90;;;5.40;99.90;;;;;;5060499;28;20048;-52
2021/04/10 08:03:44;;;;;;;1.90;1.48;;;5.50;99.90;;;;;;5070325;28;20020;-53
2021/04/10 08:06:15;;;;;;;7.47;1.60;;;5.40;99.90;;;;;;5068903;28;20025;-54
2021/04/10 08:08:46;;;;;;;3.40;1.90;;;5.40;99.90;;;;;;5069414;28;20055;-56
2021/04/10 08:11:12;;;;;;;4.07;1.08;;;5.50;99.90;;;;;;5065519;28;20071;-53
2021/04/10 08:13:38;;;;;;;4.72;1.25;;;5.70;99.90;;;;;;5070290;28;20032;-50
2021/04/10 08:16:20;;;;;;;4.50;1.25;;;5.70;99.90;;;;;;5070259;28;20016;-50
2021/04/10 08:18:46;;;;;;;5.18;1.40;;;5.80;99.90;;;;;;5046514;28;20020;-51
2021/04/10 08:21:33;;;;;;;5.53;1.42;;;5.90;99.90;;;;;;5069915;28;20035;-50
2021/04/10 08:24:00;;;;;;;;;;;6.00;99.90;;;;;;5063029;28;20033;-51
2021/04/10 08:26:25;;;;;;;8.00;1.52;;;6.10;99.90;;;;;;5052310;28;20494;-52
2021/04/10 08:28:51;;;;;;;8.07;2.17;;;6.20;99.90;;;;;;5068674;28;20063;-53
2021/04/10 08:31:18;;;;;;;5.22;1.65;;;6.30;99.90;;;;;;5069824;28;20033;-52
2021/04/10 08:33:44;;;;;;;5.38;1.70;;;6.30;99.90;;;;;;5070054;28;20027;-53
2021/04/10 08:36:11;;;;;;;6.20;1.65;;;6.40;98.60;;;;;;5069937;28;20028;-53
2021/04/10 08:38:39;;;;;;;7.07;1.45;;;6.50;98.50;;;;;;5066779;28;20097;-52
2021/04/10 08:41:07;;;;;;;8.63;1.15;;;6.50;96.00;;;;;;5069088;28;20089;-50
2021/04/10 08:43:36;;;;;;;7.72;1.85;;;6.50;95.90;;;;;;5064595;28;20017;-55
2021/04/10 08:46:03;;;;;;;5.07;1.08;;;6.50;96.90;;;;;;5061868;28;20119;-57
2021/04/10 08:48:29;;;;;;;2.78;0.77;;;6.50;94.30;;;;;;5069656;28;20631;-54
2021/04/10 08:50:59;;;;;;;7.43;1.80;;;6.70;98.70;;;;;;5069553;28;20020;-52
2021/04/10 08:53:28;;;;;;;3.97;1.23;;;6.90;93.60;;;;;;5068946;28;20012;-51
2021/04/10 08:55:55;;;;;;;5.90;1.40;;;6.90;94.60;;;;;;5059618;28;20677;-51
2021/04/10 08:58:23;;;;;;;4.65;0.95;;;7.10;93.70;;;;;;5065533;28;20028;-53
2021/04/10 09:01:00;;;;;;;5.82;1.15;;;7.10;90.70;;;;;;5067623;28;20051;-55
2021/04/10 09:03:45;;;;;;;5.32;1.58;;;7.20;93.80;;;;;;5065838;28;20035;-52
2021/04/10 09:06:11;;;;;;;3.28;1.23;;;7.40;90.70;;;;;;5061052;28;20286;-50
2021/04/10 09:08:37;;;;;;;5.65;1.35;;;7.20;89.90;;;;;;5066155;28;20052;-51
2021/04/10 09:11:04;;;;;;;2.78;0.93;;;7.20;90.30;;;;;;5069182;28;20090;-52
2021/04/10 09:13:40;;;;;;;6.47;1.17;;;7.20;89.00;;;;;;5069259;28;20394;-53
2021/04/10 09:16:31;;;;;;;1.70;0.90;;;7.20;90.90;;;;;;5064550;28;20616;-53
2021/04/10 09:19:12;;;;;;;5.47;1.92;;;7.40;90.10;;;;;;5067639;28;20035;-55
2021/04/10 09:21:52;;;;;;;3.88;0.90;;;7.50;85.50;;;;;;5058681;28;20017;-49
2021/04/10 09:24:21;;;;;;;4.68;1.50;;;7.30;88.20;;;;;;5053721;28;20028;-49
2021/04/10 09:27:02;;;;;;;2.22;0.98;;;7.30;91.80;;;;;;5059600;28;20025;-52
2021/04/10 09:29:30;;;;;;;1.63;1.40;;;7.40;90.80;;;;;;5066339;28;20555;-55
2021/04/10 09:32:01;;;;;;;3.88;0.98;;;7.60;87.30;;;;;;5062236;28;20111;-53
2021/04/10 09:34:46;;;;;;;5.90;1.50;;;7.70;87.60;;;;;;5068701;28;20025;-54
2021/04/10 09:37:31;;;;;;;5.20;1.80;;;7.80;84.00;;;;;;5068993;28;20070;-55
2021/04/10 09:40:05;;;;;;;3.08;1.23;;;8.00;91.10;;;;;;5044659;28;20041;-57
2021/04/10 09:42:37;;;;;;;5.05;1.27;;;8.20;87.90;;;;;;5069425;28;20045;-54
2021/04/10 09:45:08;;;;;;;6.97;1.45;;;8.40;90.80;;;;;;5068296;28;20020;-51
2021/04/10 09:47:52;;;;;;;4.88;1.40;;;8.60;89.60;;;;;;5073217;28;20113;-56
2021/04/10 09:50:18;;;;;;;4.07;0.90;;;8.40;85.30;;;;;;5072503;28;20031;-53
2021/04/10 09:52:44;;;;;;;6.63;1.20;;;8.40;86.10;;;;;;5087622;28;20016;-50
2021/04/10 09:55:18;;;;;;;3.95;1.90;;;8.30;87.20;;;;;;5085348;28;20389;-52
2021/04/10 09:57:44;;;;;;;9.43;1.20;;;8.30;82.10;;;;;;5069990;28;20024;-54
2021/04/10 10:00:10;;;;;;;9.98;1.67;;;8.40;85.50;;;;;;5067405;28;20470;-53
2021/04/10 10:02:36;;;;;;;5.53;1.20;;;8.40;83.90;;;;;;5067014;28;20067;-51
2021/04/10 10:05:01;;;;;;;4.97;1.48;;;8.60;87.20;;;;;;5070700;28;20034;-53
2021/04/10 10:07:27;;;;;;;8.70;1.20;;;8.80;88.90;;;;;;5068276;28;20032;-51
2021/04/10 10:10:07;;;;;;;5.75;1.02;;;8.90;85.90;;;;;;5049670;28;20048;-53
2021/04/10 10:12:32;;;;;;;6.72;1.83;;;9.10;89.50;;;;;;5059132;28;20032;-55
2021/04/10 10:14:58;;;;;;;2.50;0.90;;;9.00;79.20;;;;;;5066332;28;20136;-51
2021/04/10 10:17:28;;;;;;;3.83;1.52;;;8.60;79.50;;;;;;5066518;28;20028;-53
2021/04/10 10:20:13;;;;;;;3.55;1.40;;;8.70;80.50;;;;;;5063308;28;20596;-56
2021/04/10 10:22:40;;;;;;;3.72;1.10;;;8.90;81.40;;;;;;5037417;28;20023;-50
2021/04/10 10:25:07;;;;;;;5.50;1.17;;;9.10;78.70;;;;;;5066573;28;20016;-55
2021/04/10 10:27:37;;;;;;;4.57;1.30;;;9.00;77.50;;;;;;5067498;28;20020;-53
2021/04/10 10:30:24;;;;;;;2.85;0.90;;;9.00;72.80;;;;;;5062362;28;20622;-52
2021/04/10 10:32:50;;;;;;;3.10;0.98;;;9.10;78.30;;;;;;5065939;28;20055;-55
2021/04/10 10:35:19;;;;;;;4.13;1.05;;;9.20;74.10;;;;;;5063519;28;20040;-51
2021/04/10 10:37:47;;;;;;;4.20;1.52;;;9.20;73.60;;;;;;5058696;28;20020;-53
2021/04/10 10:40:33;;;;;;;7.30;1.20;;;9.10;75.40;;;;;;5066892;28;20037;-55
2021/04/10 10:43:08;;;;;;;6.20;1.30;;;9.20;76.80;;;;;;5058638;28;20054;-53
2021/04/10 10:45:49;;;;;;;2.25;1.05;;;9.20;75.30;;;;;;5065365;28;20410;-56
2021/04/10 10:48:16;;;;;;;4.03;1.95;;;9.20;74.00;;;;;;5065193;28;20064;-53
2021/04/10 10:50:41;;;;;;;3.03;1.25;;;9.30;72.20;;;;;;5066247;28;20355;-57
2021/04/10 10:53:32;;;;;;;5.03;1.40;;;9.30;70.50;;;;;;5063785;28;20024;-52
2021/04/10 10:56:08;;;;;;;3.95;0.90;;;9.20;72.50;;;;;;5067831;28;20032;-53
2021/04/10 10:58:37;;;;;;;4.20;0.85;;;9.20;74.90;;;;;;5067669;28;20036;-56
2021/04/10 11:01:17;;;;;;;1.85;1.13;;;9.30;70.20;;;;;;5066332;28;20025;-54
2021/04/10 11:03:49;;;;;;;6.47;1.63;;;9.30;71.70;;;;;;5067942;28;20332;-53
2021/04/10 11:06:16;;;;;;;4.40;1.35;;;9.20;69.00;;;;;;5062420;28;20025;-56
2021/04/10 11:08:42;;;;;;;8.10;1.15;;;9.10;69.90;;;;;;5056593;28;20028;-53
2021/04/10 11:11:08;;;;;;;3.10;0.80;;;9.10;69.60;;;;;;5067050;28;20032;-51
2021/04/10 11:13:34;;;;;;;5.68;1.10;;;9.20;69.70;;;;;;5070595;28;20056;-56
2021/04/10 11:16:03;;;;;;;7.85;1.27;;;9.50;69.30;;;;;;5070554;28;21982;-55
2021/04/10 11:18:33;;;;;;;2.72;1.08;;;9.70;72.50;;;;;;5070851;28;20498;-55
2021/04/10 11:21:26;;;;;;;4.63;0.93;;;10.10;79.50;;;;;;5072840;28;20020;-55
2021/04/10 11:23:59;;;;;;;2.53;1.00;;;10.50;72.50;;;;;;5079436;28;20025;-53
2021/04/10 11:26:34;;;;;;;4.72;1.05;;;10.90;73.00;;;;;;5083982;28;20024;-52
2021/04/10 11:29:20;;;;;;;2.72;1.08;;;10.90;64.80;;;;;;5070049;28;20024;-57
2021/04/10 11:32:04;;;;;;;1.08;0.82;;;10.60;60.20;;;;;;5076993;28;20028;-55
2021/04/10 11:34:31;;;;;;;2.88;1.40;;;10.20;63.90;;;;;;5086873;28;20386;-51
2021/04/10 11:36:58;;;;;;;3.63;1.15;;;10.10;62.60;;;;;;5082490;28;20035;-52
2021/04/10 11:39:27;;;;;;;3.78;1.02;;;10.00;62.00;;;;;;5083696;28;20099;-51
2021/04/10 11:41:53;;;;;;;2.17;1.17;;;9.80;60.70;;;;;;5061950;28;20021;-55
2021/04/10 11:44:21;;;;;;;3.22;1.63;;;9.50;60.30;;;;;;5080107;28;20116;-56
2021/04/10 11:46:48;;;;;;;4.40;1.35;;;9.70;59.50;;;;;;5071193;28;20016;-55
2021/04/10 11:49:23;;;;;;;3.50;1.08;;;9.60;59.10;;;;;;5079581;28;20047;-52
2021/04/10 11:51:50;;;;;;;2.13;0.85;;;9.80;61.80;;;;;;5080241;28;20025;-58
2021/04/10 11:54:36;;;;;;;4.93;1.50;;;10.10;62.10;;;;;;5063655;28;20120;-56
2021/04/10 11:57:02;;;;;;;3.80;1.55;;;10.20;59.10;;;;;;5086003;28;20063;-55
2021/04/10 11:59:35;;;;;;;4.03;1.63;;;10.00;58.40;;;;;;5078007;28;20517;-55
2021/04/10 12:02:02;;;;;;;3.92;1.00;;;9.80;58.30;;;;;;5080511;28;20027;-54
2021/04/10 12:04:40;;;;;;;1.85;1.10;;;9.70;58.80;;;;;;5086718;28;20482;-53
2021/04/10 12:07:13;;;;;;;2.30;0.80;;;9.80;64.60;;;;;;5068939;28;20036;-55
2021/04/10 12:09:40;;;;;;;8.30;1.67;;;10.10;61.60;;;;;;5080065;28;20534;-56
2021/04/10 12:12:09;;;;;;;3.42;1.05;;;10.30;60.30;;;;;;5068629;28;20197;-56
2021/04/10 12:14:38;;;;;;;3.00;0.90;;;10.50;59.40;;;;;;5061128;28;20407;-54
2021/04/10 12:17:03;;;;;;;2.85;0.70;;;10.60;58.40;;;;;;5059714;28;20051;-56
2021/04/10 12:19:29;;;;;;;5.60;1.17;;;10.80;59.90;;;;;;5059364;28;20025;-55
2021/04/10 12:21:55;;;;;;;3.30;1.10;;;10.90;56.40;;;;;;5059101;28;20406;-54
2021/04/10 12:24:20;;;;;;;4.10;0.98;;;11.00;61.10;;;;;;5059702;28;20021;-54
2021/04/10 12:26:47;;;;;;;4.00;1.10;;;11.10;59.30;;;;;;5059888;28;20029;-52
2021/04/10 12:29:13;;;;;;;1.95;1.08;;;11.30;57.30;;;;;;5060152;28;20036;-57
2021/04/10 12:31:39;;;;;;;4.35;1.25;;;11.40;60.80;;;;;;5059196;28;20063;-54
2021/04/10 12:34:04;;;;;;;3.95;1.50;;;11.60;59.90;;;;;;5058457;28;20626;-52
2021/04/10 12:36:31;;;;;;;4.68;0.98;;;11.80;59.50;;;;;;5058135;28;20513;-54
2021/04/10 12:38:57;;;;;;;1.75;0.95;;;11.80;58.70;;;;;;5058056;28;20025;-55
2021/04/10 12:41:23;;;;;;;3.83;0.68;;;11.90;60.00;;;;;;5057859;28;20488;-53
2021/04/10 12:43:49;;;;;;;4.05;0.90;;;12.00;59.90;;;;;;5062718;28;20033;-51
2021/04/10 12:46:15;;;;;;;5.43;1.15;;;11.90;59.50;;;;;;5056827;28;20024;-52
2021/04/10 12:48:41;;;;;;;4.25;1.15;;;12.00;58.80;;;;;;5057201;28;20040;-54
2021/04/10 12:51:08;;;;;;;3.97;1.13;;;12.10;59.30;;;;;;5095356;22;20156;-56
2021/04/10 12:53:33;;;;;;;2.80;1.48;;;12.20;59.40;;;;;;5080161;28;20037;-56
2021/04/10 12:55:59;;;;;;;4.72;1.42;;;12.40;59.10;;;;;;5078036;28;20505;-56
2021/04/10 12:58:24;;;;;;;3.28;1.17;;;12.60;59.60;;;;;;5078928;28;20115;-55
2021/04/10 13:00:50;;;;;;;1.77;1.02;;;12.60;57.30;;;;;;5067415;28;20594;-56
2021/04/10 13:03:16;;;;;;;2.83;0.98;;;12.50;59.40;;;;;;5058975;28;20024;-54